This is the latest recevied weather packets stored in our database for station/object 9W2YIE-13. If no packets are shown the sender has not sent any weather packets the latest 10 day(s).
| Time | Temp. | Humidity | Pressure | Rain* | Wind** | Luminosity | Snow |
|---|---|---|---|---|---|---|---|
| 1787610946 | 41.67° C | 38% | 1007 hPa | - | - | 0 W/m² | - |
| 1787610015 | 40° C | 40% | 1007 hPa | - | - | 0 W/m² | - |
| 1787609072 | 41.11° C | 38% | 1007 hPa | - | - | 0 W/m² | - |
| 1787608142 | 40.56° C | 38% | 1007 hPa | - | - | 0 W/m² | - |
| 1787607182 | 41.11° C | 38% | 1007 hPa | - | - | 0 W/m² | - |
| 1787606256 | 40.56° C | 38% | 1007 hPa | - | - | 0 W/m² | - |
| 1787605313 | 40.56° C | 39% | 1006 hPa | - | - | 0 W/m² | - |
| 1787604891 | 40.56° C | 39% | 1006 hPa | - | - | 0 W/m² | - |
| 1787603950 | 40° C | 39% | 1006 hPa | - | - | 0 W/m² | - |
| 1787603022 | 41.11° C | 38% | 1006 hPa | - | - | 0 W/m² | - |
| 1787602094 | 42.22° C | 36% | 1006 hPa | - | - | 0 W/m² | - |
| 1787601168 | 42.78° C | 35% | 1006 hPa | - | - | 0 W/m² | - |
| 1787600236 | 42.22° C | 36% | 1006 hPa | - | - | 0 W/m² | - |
| 1787599305 | 41.67° C | 36% | 1006 hPa | - | - | 0 W/m² | - |
| 1787598377 | 41.67° C | 37% | 1006 hPa | - | - | 0 W/m² | - |
| 1787597449 | 41.67° C | 36% | 1007 hPa | - | - | 0 W/m² | - |
| 1787596519 | 41.67° C | 36% | 1007 hPa | - | - | 0 W/m² | - |
| 1787595591 | 41.11° C | 37% | 1007 hPa | - | - | 0 W/m² | - |
| 1787594665 | 40° C | 38% | 1007 hPa | - | - | 0 W/m² | - |
| 1787593739 | 41.11° C | 37% | 1007 hPa | - | - | 0 W/m² | - |
| 1787592811 | 42.78° C | 34% | 1008 hPa | - | - | 0 W/m² | - |
| 1787591885 | 42.22° C | 35% | 1008 hPa | - | - | 0 W/m² | - |
| 1787590951 | 42.78° C | 34% | 1008 hPa | - | - | 0 W/m² | - |
| 1787590023 | 43.33° C | 34% | 1008 hPa | - | - | 0 W/m² | - |
| 1787589091 | 43.89° C | 33% | 1009 hPa | - | - | 0 W/m² | - |
* Rain since midnight (hover to see other rain measurements)
** Current wind speed in m/s (hover to see current wind gust speed)